Terminal Aerodrome Forecast
Issued by NWS

Home | Current Version | Previous Version | Text Only | Print | Product List | Glossary On
Versions: 1 2 3 4 5 6 7 8 9 10 11 12 13 14 15 16 17 18 19
000
FTUS46 KLOX 282300
TAFOXR
TAF
KOXR 282336Z 2900/2924 25008KT P6SM SKC
     FM290300 VRB03KT P6SM SKC
     FM291200 VRB03KT 3SM BR BKN005
     FM291600 VRB03KT 5SM BR SCT006
     FM291800 23005KT 6SM HZ SCT250
     FM292100 24007KT P6SM SCT250=

USA.gov is the U.S. government's official web portal to all federal, state and local government web resources and services.